sensor_id;sensor_type;location;lat;lon;timestamp;P1;durP1;ratioP1;P2;durP2;ratioP2
23670;SDS011;12012;51.998;7.614;2022-07-29T00:01:05;3.78;;;1.55;;
23670;SDS011;12012;51.998;7.614;2022-07-29T00:03:31;2.65;;;1.30;;
23670;SDS011;12012;51.998;7.614;2022-07-29T00:05:56;3.30;;;1.40;;
23670;SDS011;12012;51.998;7.614;2022-07-29T00:08:22;4.03;;;1.20;;
23670;SDS011;12012;51.998;7.614;2022-07-29T00:10:48;2.92;;;1.45;;
23670;SDS011;12012;51.998;7.614;2022-07-29T00:13:13;2.53;;;1.08;;
23670;SDS011;12012;51.998;7.614;2022-07-29T00:15:39;4.38;;;1.33;;
23670;SDS011;12012;51.998;7.614;2022-07-29T00:18:05;3.95;;;1.17;;
23670;SDS011;12012;51.998;7.614;2022-07-29T00:20:31;1.20;;;1.10;;
23670;SDS011;12012;51.998;7.614;2022-07-29T00:22:56;3.10;;;1.58;;
23670;SDS011;12012;51.998;7.614;2022-07-29T00:25:22;2.25;;;1.20;;
23670;SDS011;12012;51.998;7.614;2022-07-29T00:27:48;5.78;;;1.48;;
23670;SDS011;12012;51.998;7.614;2022-07-29T00:30:13;2.53;;;1.40;;
23670;SDS011;12012;51.998;7.614;2022-07-29T00:32:39;3.50;;;1.27;;
23670;SDS011;12012;51.998;7.614;2022-07-29T00:35:05;3.75;;;1.40;;
23670;SDS011;12012;51.998;7.614;2022-07-29T00:37:49;2.00;;;1.20;;
23670;SDS011;12012;51.998;7.614;2022-07-29T00:40:15;3.72;;;1.27;;
23670;SDS011;12012;51.998;7.614;2022-07-29T00:42:44;4.05;;;1.48;;
23670;SDS011;12012;51.998;7.614;2022-07-29T00:45:12;3.38;;;1.50;;
23670;SDS011;12012;51.998;7.614;2022-07-29T00:47:38;3.25;;;1.45;;
23670;SDS011;12012;51.998;7.614;2022-07-29T00:50:05;4.00;;;1.52;;
23670;SDS011;12012;51.998;7.614;2022-07-29T00:52:32;5.35;;;1.75;;
23670;SDS011;12012;51.998;7.614;2022-07-29T00:55:00;4.93;;;1.38;;
23670;SDS011;12012;51.998;7.614;2022-07-29T00:57:27;4.28;;;1.65;;
23670;SDS011;12012;51.998;7.614;2022-07-29T00:59:52;6.57;;;1.65;;
23670;SDS011;12012;51.998;7.614;2022-07-29T01:02:18;1.40;;;1.30;;
23670;SDS011;12012;51.998;7.614;2022-07-29T01:04:44;2.55;;;1.40;;
23670;SDS011;12012;51.998;7.614;2022-07-29T01:07:09;3.28;;;1.50;;
23670;SDS011;12012;51.998;7.614;2022-07-29T01:09:35;2.35;;;1.50;;
23670;SDS011;12012;51.998;7.614;2022-07-29T01:12:02;1.73;;;1.40;;
23670;SDS011;12012;51.998;7.614;2022-07-29T01:14:29;4.53;;;1.65;;
23670;SDS011;12012;51.998;7.614;2022-07-29T01:16:59;3.58;;;1.65;;
23670;SDS011;12012;51.998;7.614;2022-07-29T01:30:22;1.90;;;1.50;;
23670;SDS011;12012;51.998;7.614;2022-07-29T01:32:50;2.72;;;1.73;;
23670;SDS011;12012;51.998;7.614;2022-07-29T01:35:23;2.05;;;1.30;;
23670;SDS011;12012;51.998;7.614;2022-07-29T01:37:56;3.90;;;1.40;;
23670;SDS011;12012;51.998;7.614;2022-07-29T01:43:18;2.30;;;1.48;;
23670;SDS011;12012;51.998;7.614;2022-07-29T01:45:53;3.22;;;1.80;;
23670;SDS011;12012;51.998;7.614;2022-07-29T01:53:38;5.68;;;1.67;;
23670;SDS011;12012;51.998;7.614;2022-07-29T01:56:10;3.22;;;1.50;;
23670;SDS011;12012;51.998;7.614;2022-07-29T01:58:38;4.40;;;1.80;;
23670;SDS011;12012;51.998;7.614;2022-07-29T02:01:06;5.03;;;1.80;;
23670;SDS011;12012;51.998;7.614;2022-07-29T02:03:34;3.70;;;1.67;;
23670;SDS011;12012;51.998;7.614;2022-07-29T02:06:01;5.15;;;2.17;;
23670;SDS011;12012;51.998;7.614;2022-07-29T02:08:29;2.63;;;1.80;;
23670;SDS011;12012;51.998;7.614;2022-07-29T02:10:57;3.67;;;1.70;;
23670;SDS011;12012;51.998;7.614;2022-07-29T02:13:25;2.03;;;1.42;;
23670;SDS011;12012;51.998;7.614;2022-07-29T02:15:53;3.75;;;1.77;;
23670;SDS011;12012;51.998;7.614;2022-07-29T02:18:22;1.95;;;1.60;;
23670;SDS011;12012;51.998;7.614;2022-07-29T02:20:51;4.50;;;1.90;;
23670;SDS011;12012;51.998;7.614;2022-07-29T02:23:20;3.90;;;2.00;;
23670;SDS011;12012;51.998;7.614;2022-07-29T02:25:48;3.72;;;1.95;;
23670;SDS011;12012;51.998;7.614;2022-07-29T02:28:16;3.13;;;1.60;;
23670;SDS011;12012;51.998;7.614;2022-07-29T02:30:44;5.22;;;1.60;;
23670;SDS011;12012;51.998;7.614;2022-07-29T02:33:12;1.83;;;1.50;;
23670;SDS011;12012;51.998;7.614;2022-07-29T02:35:40;3.95;;;1.45;;
23670;SDS011;12012;51.998;7.614;2022-07-29T02:38:08;7.90;;;1.98;;
23670;SDS011;12012;51.998;7.614;2022-07-29T02:40:56;2.03;;;1.60;;
23670;SDS011;12012;51.998;7.614;2022-07-29T02:43:23;4.20;;;1.80;;
23670;SDS011;12012;51.998;7.614;2022-07-29T02:45:51;3.58;;;1.80;;
23670;SDS011;12012;51.998;7.614;2022-07-29T02:48:20;3.40;;;1.80;;
23670;SDS011;12012;51.998;7.614;2022-07-29T02:50:54;3.55;;;1.90;;
23670;SDS011;12012;51.998;7.614;2022-07-29T02:53:29;2.85;;;1.85;;
23670;SDS011;12012;51.998;7.614;2022-07-29T02:56:04;6.63;;;2.13;;
23670;SDS011;12012;51.998;7.614;2022-07-29T02:58:39;2.67;;;1.85;;
23670;SDS011;12012;51.998;7.614;2022-07-29T03:01:08;2.20;;;1.77;;
23670;SDS011;12012;51.998;7.614;2022-07-29T03:03:46;3.10;;;1.70;;
23670;SDS011;12012;51.998;7.614;2022-07-29T03:06:14;4.90;;;1.80;;
23670;SDS011;12012;51.998;7.614;2022-07-29T03:08:42;5.28;;;2.17;;
23670;SDS011;12012;51.998;7.614;2022-07-29T03:11:09;4.80;;;1.88;;
23670;SDS011;12012;51.998;7.614;2022-07-29T03:13:36;5.70;;;1.65;;
23670;SDS011;12012;51.998;7.614;2022-07-29T03:16:02;4.30;;;2.17;;
23670;SDS011;12012;51.998;7.614;2022-07-29T03:18:29;3.05;;;1.70;;
23670;SDS011;12012;51.998;7.614;2022-07-29T03:20:56;2.55;;;1.80;;
23670;SDS011;12012;51.998;7.614;2022-07-29T03:23:22;1.92;;;1.40;;
23670;SDS011;12012;51.998;7.614;2022-07-29T03:25:51;2.85;;;1.70;;
23670;SDS011;12012;51.998;7.614;2022-07-29T03:28:17;1.88;;;1.63;;
23670;SDS011;12012;51.998;7.614;2022-07-29T03:30:44;2.60;;;1.70;;
23670;SDS011;12012;51.998;7.614;2022-07-29T03:33:10;4.90;;;1.65;;
23670;SDS011;12012;51.998;7.614;2022-07-29T03:35:36;1.77;;;1.55;;
23670;SDS011;12012;51.998;7.614;2022-07-29T03:38:01;2.28;;;1.90;;
23670;SDS011;12012;51.998;7.614;2022-07-29T03:43:30;3.25;;;1.92;;
23670;SDS011;12012;51.998;7.614;2022-07-29T03:45:58;4.13;;;1.80;;
23670;SDS011;12012;51.998;7.614;2022-07-29T03:48:26;3.85;;;1.85;;
23670;SDS011;12012;51.998;7.614;2022-07-29T03:50:55;4.80;;;1.92;;
23670;SDS011;12012;51.998;7.614;2022-07-29T03:53:21;5.43;;;1.67;;
23670;SDS011;12012;51.998;7.614;2022-07-29T03:55:50;4.32;;;1.60;;
23670;SDS011;12012;51.998;7.614;2022-07-29T03:58:19;7.07;;;1.85;;
23670;SDS011;12012;51.998;7.614;2022-07-29T04:00:46;5.13;;;1.98;;
23670;SDS011;12012;51.998;7.614;2022-07-29T04:03:12;3.72;;;2.25;;
23670;SDS011;12012;51.998;7.614;2022-07-29T04:05:38;6.00;;;1.92;;
23670;SDS011;12012;51.998;7.614;2022-07-29T04:08:04;4.20;;;1.70;;
23670;SDS011;12012;51.998;7.614;2022-07-29T04:10:30;4.93;;;1.90;;
23670;SDS011;12012;51.998;7.614;2022-07-29T04:12:55;4.45;;;1.90;;
23670;SDS011;12012;51.998;7.614;2022-07-29T04:15:21;3.80;;;2.10;;
23670;SDS011;12012;51.998;7.614;2022-07-29T04:17:47;3.63;;;2.15;;
23670;SDS011;12012;51.998;7.614;2022-07-29T04:20:12;6.07;;;2.38;;
23670;SDS011;12012;51.998;7.614;2022-07-29T04:22:38;4.00;;;1.70;;
23670;SDS011;12012;51.998;7.614;2022-07-29T04:25:05;2.83;;;1.77;;
23670;SDS011;12012;51.998;7.614;2022-07-29T04:27:30;2.53;;;1.88;;
23670;SDS011;12012;51.998;7.614;2022-07-29T04:29:56;4.88;;;2.10;;
23670;SDS011;12012;51.998;7.614;2022-07-29T04:32:22;4.18;;;2.00;;
23670;SDS011;12012;51.998;7.614;2022-07-29T04:34:47;3.60;;;1.92;;
23670;SDS011;12012;51.998;7.614;2022-07-29T04:37:13;4.05;;;2.00;;
23670;SDS011;12012;51.998;7.614;2022-07-29T04:39:38;3.72;;;1.90;;
23670;SDS011;12012;51.998;7.614;2022-07-29T04:42:04;3.33;;;2.00;;
23670;SDS011;12012;51.998;7.614;2022-07-29T04:44:30;7.35;;;1.90;;
23670;SDS011;12012;51.998;7.614;2022-07-29T04:46:56;6.47;;;2.00;;
23670;SDS011;12012;51.998;7.614;2022-07-29T04:49:22;4.22;;;1.95;;
23670;SDS011;12012;51.998;7.614;2022-07-29T04:51:48;2.42;;;1.67;;
23670;SDS011;12012;51.998;7.614;2022-07-29T04:54:13;6.03;;;1.77;;
23670;SDS011;12012;51.998;7.614;2022-07-29T04:56:39;5.90;;;2.03;;
23670;SDS011;12012;51.998;7.614;2022-07-29T04:59:04;3.78;;;1.83;;
23670;SDS011;12012;51.998;7.614;2022-07-29T05:01:30;4.72;;;1.98;;
23670;SDS011;12012;51.998;7.614;2022-07-29T05:03:56;3.78;;;1.92;;
23670;SDS011;12012;51.998;7.614;2022-07-29T05:06:21;4.32;;;2.00;;
23670;SDS011;12012;51.998;7.614;2022-07-29T05:08:47;4.90;;;2.00;;
23670;SDS011;12012;51.998;7.614;2022-07-29T05:11:12;3.97;;;1.70;;
23670;SDS011;12012;51.998;7.614;2022-07-29T05:13:38;5.05;;;1.80;;
23670;SDS011;12012;51.998;7.614;2022-07-29T05:16:04;3.22;;;1.58;;
23670;SDS011;12012;51.998;7.614;2022-07-29T05:18:30;9.93;;;2.13;;
23670;SDS011;12012;51.998;7.614;2022-07-29T05:20:55;5.28;;;1.80;;
23670;SDS011;12012;51.998;7.614;2022-07-29T05:23:21;4.35;;;2.03;;
23670;SDS011;12012;51.998;7.614;2022-07-29T05:25:47;3.28;;;1.52;;
23670;SDS011;12012;51.998;7.614;2022-07-29T05:28:12;6.25;;;2.10;;
23670;SDS011;12012;51.998;7.614;2022-07-29T05:30:38;4.75;;;2.47;;
23670;SDS011;12012;51.998;7.614;2022-07-29T05:33:04;2.97;;;1.90;;
23670;SDS011;12012;51.998;7.614;2022-07-29T05:35:29;4.05;;;1.77;;
23670;SDS011;12012;51.998;7.614;2022-07-29T05:37:55;4.72;;;1.80;;
23670;SDS011;12012;51.998;7.614;2022-07-29T05:40:20;7.18;;;2.42;;
23670;SDS011;12012;51.998;7.614;2022-07-29T05:42:46;3.00;;;1.98;;
23670;SDS011;12012;51.998;7.614;2022-07-29T05:45:12;4.07;;;1.92;;
23670;SDS011;12012;51.998;7.614;2022-07-29T05:47:38;5.35;;;1.95;;
23670;SDS011;12012;51.998;7.614;2022-07-29T05:50:03;5.55;;;1.70;;
23670;SDS011;12012;51.998;7.614;2022-07-29T05:52:29;3.35;;;2.05;;
23670;SDS011;12012;51.998;7.614;2022-07-29T05:54:55;6.95;;;2.13;;
23670;SDS011;12012;51.998;7.614;2022-07-29T05:57:22;3.38;;;1.90;;
23670;SDS011;12012;51.998;7.614;2022-07-29T05:59:49;4.78;;;1.90;;
23670;SDS011;12012;51.998;7.614;2022-07-29T06:02:15;6.38;;;1.80;;
23670;SDS011;12012;51.998;7.614;2022-07-29T06:04:42;6.30;;;2.28;;
23670;SDS011;12012;51.998;7.614;2022-07-29T06:07:08;5.07;;;2.03;;
23670;SDS011;12012;51.998;7.614;2022-07-29T06:09:34;4.82;;;2.17;;
23670;SDS011;12012;51.998;7.614;2022-07-29T06:12:00;7.05;;;2.58;;
23670;SDS011;12012;51.998;7.614;2022-07-29T06:14:25;7.75;;;2.38;;
23670;SDS011;12012;51.998;7.614;2022-07-29T06:16:51;2.65;;;1.88;;
23670;SDS011;12012;51.998;7.614;2022-07-29T06:19:18;3.35;;;2.00;;
23670;SDS011;12012;51.998;7.614;2022-07-29T06:21:44;4.93;;;1.90;;
23670;SDS011;12012;51.998;7.614;2022-07-29T06:24:10;5.28;;;2.47;;
23670;SDS011;12012;51.998;7.614;2022-07-29T06:26:37;4.82;;;2.15;;
23670;SDS011;12012;51.998;7.614;2022-07-29T06:29:04;5.85;;;2.53;;
23670;SDS011;12012;51.998;7.614;2022-07-29T06:31:30;3.78;;;1.77;;
23670;SDS011;12012;51.998;7.614;2022-07-29T06:33:55;4.03;;;2.13;;
23670;SDS011;12012;51.998;7.614;2022-07-29T06:36:21;7.93;;;2.00;;
23670;SDS011;12012;51.998;7.614;2022-07-29T06:38:47;5.75;;;2.50;;
23670;SDS011;12012;51.998;7.614;2022-07-29T06:41:13;6.72;;;2.58;;
23670;SDS011;12012;51.998;7.614;2022-07-29T06:43:41;10.90;;;2.50;;
23670;SDS011;12012;51.998;7.614;2022-07-29T06:46:08;3.00;;;2.10;;
23670;SDS011;12012;51.998;7.614;2022-07-29T06:48:35;5.30;;;2.05;;
23670;SDS011;12012;51.998;7.614;2022-07-29T06:51:02;5.95;;;1.90;;
23670;SDS011;12012;51.998;7.614;2022-07-29T06:53:29;3.45;;;1.83;;
23670;SDS011;12012;51.998;7.614;2022-07-29T06:55:55;3.13;;;2.22;;
23670;SDS011;12012;51.998;7.614;2022-07-29T06:58:21;4.25;;;2.13;;
23670;SDS011;12012;51.998;7.614;2022-07-29T07:00:47;2.97;;;2.00;;
23670;SDS011;12012;51.998;7.614;2022-07-29T07:03:13;6.88;;;2.30;;
23670;SDS011;12012;51.998;7.614;2022-07-29T07:05:39;7.35;;;2.28;;
23670;SDS011;12012;51.998;7.614;2022-07-29T07:08:05;4.85;;;2.13;;
23670;SDS011;12012;51.998;7.614;2022-07-29T07:10:32;8.07;;;2.50;;
23670;SDS011;12012;51.998;7.614;2022-07-29T07:12:58;5.47;;;2.20;;
23670;SDS011;12012;51.998;7.614;2022-07-29T07:15:24;8.18;;;2.17;;
23670;SDS011;12012;51.998;7.614;2022-07-29T07:17:50;7.80;;;2.38;;
23670;SDS011;12012;51.998;7.614;2022-07-29T07:20:16;4.75;;;2.17;;
23670;SDS011;12012;51.998;7.614;2022-07-29T07:22:42;2.67;;;1.80;;
23670;SDS011;12012;51.998;7.614;2022-07-29T07:25:08;5.60;;;1.83;;
23670;SDS011;12012;51.998;7.614;2022-07-29T07:27:35;7.32;;;2.35;;
23670;SDS011;12012;51.998;7.614;2022-07-29T07:30:01;3.78;;;2.30;;
23670;SDS011;12012;51.998;7.614;2022-07-29T07:32:30;8.20;;;2.33;;
23670;SDS011;12012;51.998;7.614;2022-07-29T07:34:56;4.97;;;2.35;;
23670;SDS011;12012;51.998;7.614;2022-07-29T07:37:22;4.22;;;2.58;;
23670;SDS011;12012;51.998;7.614;2022-07-29T07:39:49;5.40;;;2.25;;
23670;SDS011;12012;51.998;7.614;2022-07-29T07:42:16;5.18;;;2.17;;
23670;SDS011;12012;51.998;7.614;2022-07-29T07:44:42;5.88;;;2.05;;
23670;SDS011;12012;51.998;7.614;2022-07-29T07:47:07;4.95;;;2.00;;
23670;SDS011;12012;51.998;7.614;2022-07-29T07:49:33;5.57;;;2.80;;
23670;SDS011;12012;51.998;7.614;2022-07-29T07:51:58;7.13;;;2.25;;
23670;SDS011;12012;51.998;7.614;2022-07-29T07:54:24;5.03;;;2.20;;
23670;SDS011;12012;51.998;7.614;2022-07-29T07:56:50;6.63;;;1.95;;
23670;SDS011;12012;51.998;7.614;2022-07-29T07:59:16;3.58;;;1.90;;
23670;SDS011;12012;51.998;7.614;2022-07-29T08:01:41;2.40;;;1.92;;
23670;SDS011;12012;51.998;7.614;2022-07-29T08:04:07;3.45;;;1.83;;
23670;SDS011;12012;51.998;7.614;2022-07-29T08:06:33;3.97;;;2.00;;
23670;SDS011;12012;51.998;7.614;2022-07-29T08:09:03;5.55;;;2.00;;
23670;SDS011;12012;51.998;7.614;2022-07-29T08:11:29;8.98;;;2.33;;
23670;SDS011;12012;51.998;7.614;2022-07-29T08:13:55;3.00;;;2.00;;
23670;SDS011;12012;51.998;7.614;2022-07-29T08:16:20;6.07;;;2.42;;
23670;SDS011;12012;51.998;7.614;2022-07-29T08:18:46;8.38;;;2.35;;
23670;SDS011;12012;51.998;7.614;2022-07-29T08:21:12;9.07;;;2.42;;
23670;SDS011;12012;51.998;7.614;2022-07-29T08:23:39;5.80;;;2.10;;
23670;SDS011;12012;51.998;7.614;2022-07-29T08:26:11;6.05;;;2.35;;
23670;SDS011;12012;51.998;7.614;2022-07-29T08:28:38;10.80;;;2.30;;
23670;SDS011;12012;51.998;7.614;2022-07-29T08:31:05;7.22;;;2.22;;
23670;SDS011;12012;51.998;7.614;2022-07-29T08:33:31;6.78;;;2.10;;
23670;SDS011;12012;51.998;7.614;2022-07-29T08:35:58;4.32;;;1.73;;
23670;SDS011;12012;51.998;7.614;2022-07-29T08:38:24;6.57;;;2.08;;
23670;SDS011;12012;51.998;7.614;2022-07-29T08:40:51;2.63;;;2.03;;
23670;SDS011;12012;51.998;7.614;2022-07-29T08:43:17;4.20;;;2.22;;
23670;SDS011;12012;51.998;7.614;2022-07-29T08:45:45;6.70;;;2.10;;
23670;SDS011;12012;51.998;7.614;2022-07-29T08:48:12;6.22;;;2.13;;
23670;SDS011;12012;51.998;7.614;2022-07-29T08:50:39;5.55;;;1.88;;
23670;SDS011;12012;51.998;7.614;2022-07-29T08:53:07;5.97;;;1.90;;
23670;SDS011;12012;51.998;7.614;2022-07-29T08:55:36;2.80;;;1.70;;
23670;SDS011;12012;51.998;7.614;2022-07-29T08:58:04;5.13;;;1.90;;
23670;SDS011;12012;51.998;7.614;2022-07-29T09:00:30;7.15;;;2.13;;
23670;SDS011;12012;51.998;7.614;2022-07-29T09:02:57;4.72;;;2.47;;
23670;SDS011;12012;51.998;7.614;2022-07-29T09:05:24;7.32;;;2.30;;
23670;SDS011;12012;51.998;7.614;2022-07-29T09:07:51;5.80;;;2.15;;
23670;SDS011;12012;51.998;7.614;2022-07-29T09:10:17;5.75;;;2.28;;
23670;SDS011;12012;51.998;7.614;2022-07-29T09:12:43;7.38;;;2.90;;
23670;SDS011;12012;51.998;7.614;2022-07-29T09:15:09;3.60;;;2.25;;
23670;SDS011;12012;51.998;7.614;2022-07-29T09:20:14;4.53;;;1.85;;
23670;SDS011;12012;51.998;7.614;2022-07-29T09:22:44;4.63;;;2.03;;
23670;SDS011;12012;51.998;7.614;2022-07-29T09:25:14;4.78;;;2.00;;
23670;SDS011;12012;51.998;7.614;2022-07-29T09:28:04;4.35;;;1.88;;
23670;SDS011;12012;51.998;7.614;2022-07-29T09:30:53;3.28;;;1.88;;
23670;SDS011;12012;51.998;7.614;2022-07-29T09:33:21;4.10;;;1.95;;
23670;SDS011;12012;51.998;7.614;2022-07-29T09:36:02;3.10;;;1.95;;
23670;SDS011;12012;51.998;7.614;2022-07-29T09:38:30;5.25;;;2.00;;
23670;SDS011;12012;51.998;7.614;2022-07-29T09:40:57;8.05;;;2.38;;
23670;SDS011;12012;51.998;7.614;2022-07-29T09:43:23;4.22;;;1.70;;
23670;SDS011;12012;51.998;7.614;2022-07-29T09:45:49;5.95;;;2.15;;
23670;SDS011;12012;51.998;7.614;2022-07-29T09:48:19;6.20;;;2.10;;
23670;SDS011;12012;51.998;7.614;2022-07-29T09:50:46;8.40;;;2.60;;
23670;SDS011;12012;51.998;7.614;2022-07-29T09:53:33;8.20;;;2.17;;
23670;SDS011;12012;51.998;7.614;2022-07-29T09:56:00;5.25;;;2.45;;
23670;SDS011;12012;51.998;7.614;2022-07-29T09:58:26;6.07;;;2.20;;
23670;SDS011;12012;51.998;7.614;2022-07-29T10:00:53;11.43;;;2.60;;
23670;SDS011;12012;51.998;7.614;2022-07-29T10:03:19;6.65;;;2.72;;
23670;SDS011;12012;51.998;7.614;2022-07-29T10:05:46;11.38;;;2.80;;
23670;SDS011;12012;51.998;7.614;2022-07-29T10:08:28;4.30;;;2.60;;
23670;SDS011;12012;51.998;7.614;2022-07-29T10:11:05;7.65;;;3.20;;
23670;SDS011;12012;51.998;7.614;2022-07-29T10:13:37;7.10;;;2.88;;
23670;SDS011;12012;51.998;7.614;2022-07-29T10:16:04;5.68;;;2.95;;
23670;SDS011;12012;51.998;7.614;2022-07-29T10:18:31;6.55;;;3.22;;
23670;SDS011;12012;51.998;7.614;2022-07-29T10:20:58;9.45;;;2.88;;
23670;SDS011;12012;51.998;7.614;2022-07-29T10:23:26;5.43;;;3.00;;
23670;SDS011;12012;51.998;7.614;2022-07-29T10:25:52;5.03;;;2.63;;
23670;SDS011;12012;51.998;7.614;2022-07-29T10:28:18;5.72;;;3.25;;
23670;SDS011;12012;51.998;7.614;2022-07-29T10:30:44;7.35;;;2.97;;
23670;SDS011;12012;51.998;7.614;2022-07-29T10:33:28;6.13;;;3.10;;
23670;SDS011;12012;51.998;7.614;2022-07-29T10:36:05;8.70;;;3.20;;
23670;SDS011;12012;51.998;7.614;2022-07-29T10:41:47;7.13;;;3.08;;
23670;SDS011;12012;51.998;7.614;2022-07-29T10:44:26;8.75;;;2.95;;
23670;SDS011;12012;51.998;7.614;2022-07-29T10:46:53;5.55;;;3.10;;
23670;SDS011;12012;51.998;7.614;2022-07-29T10:49:23;6.00;;;3.03;;
23670;SDS011;12012;51.998;7.614;2022-07-29T10:59:45;5.32;;;3.10;;
23670;SDS011;12012;51.998;7.614;2022-07-29T11:04:59;6.50;;;3.10;;
23670;SDS011;12012;51.998;7.614;2022-07-29T11:07:32;7.93;;;3.08;;
23670;SDS011;12012;51.998;7.614;2022-07-29T11:15:03;5.13;;;2.90;;
23670;SDS011;12012;51.998;7.614;2022-07-29T11:20:38;6.05;;;3.30;;
23670;SDS011;12012;51.998;7.614;2022-07-29T11:34:26;6.30;;;2.88;;
23670;SDS011;12012;51.998;7.614;2022-07-29T11:39:31;11.32;;;3.35;;
23670;SDS011;12012;51.998;7.614;2022-07-29T11:47:40;7.28;;;2.95;;
23670;SDS011;12012;51.998;7.614;2022-07-29T11:50:35;5.90;;;2.88;;
23670;SDS011;12012;51.998;7.614;2022-07-29T11:53:11;6.30;;;2.80;;
23670;SDS011;12012;51.998;7.614;2022-07-29T11:55:38;5.63;;;3.03;;
23670;SDS011;12012;51.998;7.614;2022-07-29T11:58:05;10.43;;;2.83;;
23670;SDS011;12012;51.998;7.614;2022-07-29T12:02:59;7.97;;;3.33;;
23670;SDS011;12012;51.998;7.614;2022-07-29T12:05:31;7.30;;;2.72;;
23670;SDS011;12012;51.998;7.614;2022-07-29T12:08:10;5.50;;;2.97;;
23670;SDS011;12012;51.998;7.614;2022-07-29T12:10:44;3.70;;;2.60;;
23670;SDS011;12012;51.998;7.614;2022-07-29T12:13:11;7.70;;;3.58;;
23670;SDS011;12012;51.998;7.614;2022-07-29T12:15:37;5.05;;;3.05;;
23670;SDS011;12012;51.998;7.614;2022-07-29T12:18:09;7.55;;;4.03;;
23670;SDS011;12012;51.998;7.614;2022-07-29T12:20:42;6.03;;;3.22;;
23670;SDS011;12012;51.998;7.614;2022-07-29T12:23:09;6.47;;;2.97;;
23670;SDS011;12012;51.998;7.614;2022-07-29T12:25:39;7.78;;;2.95;;
23670;SDS011;12012;51.998;7.614;2022-07-29T12:28:08;5.68;;;3.15;;
23670;SDS011;12012;51.998;7.614;2022-07-29T12:35:58;6.35;;;2.80;;
23670;SDS011;12012;51.998;7.614;2022-07-29T12:38:25;7.78;;;2.97;;
23670;SDS011;12012;51.998;7.614;2022-07-29T12:40:51;3.70;;;2.53;;
23670;SDS011;12012;51.998;7.614;2022-07-29T12:43:19;11.23;;;4.43;;
23670;SDS011;12012;51.998;7.614;2022-07-29T12:45:49;8.65;;;4.57;;
23670;SDS011;12012;51.998;7.614;2022-07-29T12:48:17;5.65;;;3.72;;
23670;SDS011;12012;51.998;7.614;2022-07-29T12:50:58;7.85;;;3.67;;
23670;SDS011;12012;51.998;7.614;2022-07-29T12:53:24;9.40;;;3.85;;
23670;SDS011;12012;51.998;7.614;2022-07-29T12:55:52;10.25;;;4.30;;
23670;SDS011;12012;51.998;7.614;2022-07-29T13:01:11;7.65;;;3.35;;
23670;SDS011;12012;51.998;7.614;2022-07-29T13:03:42;10.30;;;4.28;;
23670;SDS011;12012;51.998;7.614;2022-07-29T13:06:29;9.20;;;4.20;;
23670;SDS011;12012;51.998;7.614;2022-07-29T13:09:05;7.88;;;3.70;;
23670;SDS011;12012;51.998;7.614;2022-07-29T13:11:37;5.63;;;3.03;;
23670;SDS011;12012;51.998;7.614;2022-07-29T13:14:03;5.93;;;2.97;;
23670;SDS011;12012;51.998;7.614;2022-07-29T13:16:30;7.57;;;3.45;;
23670;SDS011;12012;51.998;7.614;2022-07-29T13:19:05;4.75;;;2.95;;
23670;SDS011;12012;51.998;7.614;2022-07-29T13:21:32;8.02;;;3.47;;
23670;SDS011;12012;51.998;7.614;2022-07-29T13:23:57;10.32;;;3.85;;
23670;SDS011;12012;51.998;7.614;2022-07-29T13:26:23;9.13;;;4.25;;
23670;SDS011;12012;51.998;7.614;2022-07-29T13:28:49;10.23;;;3.05;;
23670;SDS011;12012;51.998;7.614;2022-07-29T13:31:14;6.93;;;3.38;;
23670;SDS011;12012;51.998;7.614;2022-07-29T13:33:40;5.50;;;2.92;;
23670;SDS011;12012;51.998;7.614;2022-07-29T13:36:06;7.05;;;3.03;;
23670;SDS011;12012;51.998;7.614;2022-07-29T13:38:32;6.82;;;3.13;;
23670;SDS011;12012;51.998;7.614;2022-07-29T13:40:57;7.00;;;3.50;;
23670;SDS011;12012;51.998;7.614;2022-07-29T13:43:23;7.20;;;3.75;;
23670;SDS011;12012;51.998;7.614;2022-07-29T13:45:49;7.13;;;2.63;;
23670;SDS011;12012;51.998;7.614;2022-07-29T13:48:14;10.23;;;3.47;;
23670;SDS011;12012;51.998;7.614;2022-07-29T13:50:40;8.20;;;3.15;;
23670;SDS011;12012;51.998;7.614;2022-07-29T13:53:05;5.68;;;2.92;;
23670;SDS011;12012;51.998;7.614;2022-07-29T13:55:31;6.03;;;3.15;;
23670;SDS011;12012;51.998;7.614;2022-07-29T13:57:57;6.38;;;3.25;;
23670;SDS011;12012;51.998;7.614;2022-07-29T14:00:22;5.05;;;2.75;;
23670;SDS011;12012;51.998;7.614;2022-07-29T14:02:48;7.38;;;2.67;;
23670;SDS011;12012;51.998;7.614;2022-07-29T14:05:14;4.55;;;2.38;;
23670;SDS011;12012;51.998;7.614;2022-07-29T14:07:40;6.72;;;2.95;;
23670;SDS011;12012;51.998;7.614;2022-07-29T14:10:05;3.55;;;1.73;;
23670;SDS011;12012;51.998;7.614;2022-07-29T14:12:32;4.30;;;2.55;;
23670;SDS011;12012;51.998;7.614;2022-07-29T14:14:57;5.00;;;2.40;;
23670;SDS011;12012;51.998;7.614;2022-07-29T14:17:23;5.90;;;2.88;;
23670;SDS011;12012;51.998;7.614;2022-07-29T14:19:49;4.30;;;2.42;;
23670;SDS011;12012;51.998;7.614;2022-07-29T14:22:14;4.10;;;2.00;;
23670;SDS011;12012;51.998;7.614;2022-07-29T14:24:40;10.38;;;2.80;;
23670;SDS011;12012;51.998;7.614;2022-07-29T14:27:06;6.78;;;2.72;;
23670;SDS011;12012;51.998;7.614;2022-07-29T14:29:32;6.57;;;2.60;;
23670;SDS011;12012;51.998;7.614;2022-07-29T14:31:58;6.00;;;2.00;;
23670;SDS011;12012;51.998;7.614;2022-07-29T14:34:24;4.18;;;2.00;;
23670;SDS011;12012;51.998;7.614;2022-07-29T14:36:49;5.38;;;2.50;;
23670;SDS011;12012;51.998;7.614;2022-07-29T14:39:15;3.60;;;1.90;;
23670;SDS011;12012;51.998;7.614;2022-07-29T14:41:41;5.43;;;2.55;;
23670;SDS011;12012;51.998;7.614;2022-07-29T14:44:07;4.47;;;2.05;;
23670;SDS011;12012;51.998;7.614;2022-07-29T14:46:33;6.20;;;2.35;;
23670;SDS011;12012;51.998;7.614;2022-07-29T14:48:59;4.47;;;2.15;;
23670;SDS011;12012;51.998;7.614;2022-07-29T14:51:24;7.47;;;2.38;;
23670;SDS011;12012;51.998;7.614;2022-07-29T14:53:50;4.88;;;2.58;;
23670;SDS011;12012;51.998;7.614;2022-07-29T14:56:16;9.88;;;2.97;;
23670;SDS011;12012;51.998;7.614;2022-07-29T14:58:41;7.05;;;3.00;;
23670;SDS011;12012;51.998;7.614;2022-07-29T15:01:07;5.53;;;1.90;;
23670;SDS011;12012;51.998;7.614;2022-07-29T15:03:32;4.15;;;2.38;;
23670;SDS011;12012;51.998;7.614;2022-07-29T15:05:58;9.15;;;2.90;;
23670;SDS011;12012;51.998;7.614;2022-07-29T15:08:24;6.00;;;2.40;;
23670;SDS011;12012;51.998;7.614;2022-07-29T15:10:50;4.25;;;2.00;;
23670;SDS011;12012;51.998;7.614;2022-07-29T15:13:16;6.40;;;2.45;;
23670;SDS011;12012;51.998;7.614;2022-07-29T15:15:41;5.22;;;2.35;;
23670;SDS011;12012;51.998;7.614;2022-07-29T15:18:07;5.90;;;2.38;;
23670;SDS011;12012;51.998;7.614;2022-07-29T15:20:34;5.05;;;2.67;;
23670;SDS011;12012;51.998;7.614;2022-07-29T15:22:59;6.68;;;2.30;;
23670;SDS011;12012;51.998;7.614;2022-07-29T15:25:25;5.45;;;2.60;;
23670;SDS011;12012;51.998;7.614;2022-07-29T15:27:51;8.30;;;2.78;;
23670;SDS011;12012;51.998;7.614;2022-07-29T15:30:16;5.07;;;1.95;;
23670;SDS011;12012;51.998;7.614;2022-07-29T15:32:43;5.13;;;2.30;;
23670;SDS011;12012;51.998;7.614;2022-07-29T15:35:09;16.45;;;2.65;;
23670;SDS011;12012;51.998;7.614;2022-07-29T15:37:37;4.45;;;2.30;;
23670;SDS011;12012;51.998;7.614;2022-07-29T15:40:05;4.75;;;2.10;;
23670;SDS011;12012;51.998;7.614;2022-07-29T15:42:31;8.27;;;2.55;;
23670;SDS011;12012;51.998;7.614;2022-07-29T15:44:57;5.55;;;2.38;;
23670;SDS011;12012;51.998;7.614;2022-07-29T15:47:27;8.63;;;2.40;;
23670;SDS011;12012;51.998;7.614;2022-07-29T15:49:53;4.60;;;2.22;;
23670;SDS011;12012;51.998;7.614;2022-07-29T15:52:19;5.57;;;2.13;;
23670;SDS011;12012;51.998;7.614;2022-07-29T15:54:45;5.82;;;2.17;;
23670;SDS011;12012;51.998;7.614;2022-07-29T15:57:11;6.93;;;2.00;;
23670;SDS011;12012;51.998;7.614;2022-07-29T15:59:36;6.25;;;2.30;;
23670;SDS011;12012;51.998;7.614;2022-07-29T16:02:02;13.13;;;2.33;;
23670;SDS011;12012;51.998;7.614;2022-07-29T16:04:29;4.30;;;2.30;;
23670;SDS011;12012;51.998;7.614;2022-07-29T16:06:55;6.43;;;2.45;;